To NAV CANADA Home Page Login to a new session Search on AWWS site Feedback and Comments Disclaimer Vers la page française équivalente Tips FAQ What's new on the site To the Forecasts and Observations / NOTAM section To "File a Flight Plan" website Publications and other links Update of the User's profile FIC Telephone Numbers My Weather Data Folder Route Weather Data Regional Weather Data Local Weather Data To the Forecasts and Observations / NOTAM section
Request Generated 09/29/2016 at 15:13:03 UTC . Weather information available at that time is displayed.

METAR/TAF

HAY RIVER/MERLYN CARTER AIRPORT/NT    

METAR CYHY 291500Z 24005KT 15SM FEW070 FEW230 01/M01 A3014 RMK AC1CI1
SLP220=
METAR CYHY 291400Z 21003KT 170V260 15SM FEW070 FEW240 00/M01 A3014
RMK AC1CI1 SLP218=
METAR CYHY 291300Z 24005KT 15SM FEW100 FEW240 M00/M02 A3014 RMK
AC1CI1 SLP218=

TAF CYHY 291138Z 2912/2924 VRB03KT P6SM FEW100
BECMG 2915/2917 26010KT
RMK NXT FCST BY 291800Z=
Your time UTC time
Weather data provided by Environment Canada and NAV CANADA